sensor_id;sensor_type;location;lat;lon;timestamp;pressure;altitude;pressure_sealevel;temperature;humidity
1694;BME280;71975;47.068;15.408;2023-08-30T00:00:19;96311.44;;;20.51;51.78
1694;BME280;71975;47.068;15.408;2023-08-30T00:05:24;96318.94;;;20.50;51.45
1694;BME280;71975;47.068;15.408;2023-08-30T00:10:29;96313.94;;;20.49;52.07
1694;BME280;71975;47.068;15.408;2023-08-30T00:15:32;96321.69;;;20.45;51.98
1694;BME280;71975;47.068;15.408;2023-08-30T00:20:36;96324.44;;;20.50;51.99
1694;BME280;71975;47.068;15.408;2023-08-30T00:25:39;96334.94;;;20.46;52.19
1694;BME280;71975;47.068;15.408;2023-08-30T00:30:42;96342.91;;;20.39;52.73
1694;BME280;71975;47.068;15.408;2023-08-30T00:35:46;96338.41;;;20.47;52.33
1694;BME280;71975;47.068;15.408;2023-08-30T00:40:49;96341.41;;;20.38;52.50
1694;BME280;71975;47.068;15.408;2023-08-30T00:45:52;96351.66;;;20.43;52.49
1694;BME280;71975;47.068;15.408;2023-08-30T00:50:56;96358.16;;;20.45;52.37
1694;BME280;71975;47.068;15.408;2023-08-30T00:55:59;96367.91;;;20.41;52.26
1694;BME280;71975;47.068;15.408;2023-08-30T01:01:03;96371.13;;;20.39;52.62
1694;BME280;71975;47.068;15.408;2023-08-30T01:06:10;96374.88;;;20.42;52.28
1694;BME280;71975;47.068;15.408;2023-08-30T01:16:35;96364.38;;;20.35;52.96
1694;BME280;71975;47.068;15.408;2023-08-30T01:21:47;96370.41;;;20.39;53.12
1694;BME280;71975;47.068;15.408;2023-08-30T01:27:07;96374.63;;;20.40;53.12
1694;BME280;71975;47.068;15.408;2023-08-30T01:32:10;96370.16;;;20.37;53.83
1694;BME280;71975;47.068;15.408;2023-08-30T01:37:15;96371.13;;;20.39;53.41
1694;BME280;71975;47.068;15.408;2023-08-30T01:42:19;96373.41;;;20.41;52.94
1694;BME280;71975;47.068;15.408;2023-08-30T01:47:24;96364.44;;;20.46;52.58
1694;BME280;71975;47.068;15.408;2023-08-30T01:52:28;96355.16;;;20.43;52.70
1694;BME280;71975;47.068;15.408;2023-08-30T01:57:32;96366.94;;;20.44;52.95
1694;BME280;71975;47.068;15.408;2023-08-30T02:02:35;96352.16;;;20.47;54.47
1694;BME280;71975;47.068;15.408;2023-08-30T02:07:44;96354.88;;;20.30;56.26
1694;BME280;71975;47.068;15.408;2023-08-30T02:12:52;96358.13;;;20.29;56.81
1694;BME280;71975;47.068;15.408;2023-08-30T02:17:56;96354.13;;;20.24;57.07
1694;BME280;71975;47.068;15.408;2023-08-30T02:22:59;96354.81;;;20.19;57.88
1694;BME280;71975;47.068;15.408;2023-08-30T02:28:16;96365.00;;;20.02;58.78
1694;BME280;71975;47.068;15.408;2023-08-30T02:33:19;96354.75;;;20.03;58.92
1694;BME280;71975;47.068;15.408;2023-08-30T02:38:22;96367.22;;;20.04;59.65
1694;BME280;71975;47.068;15.408;2023-08-30T02:43:26;96369.38;;;19.41;69.80
1694;BME280;71975;47.068;15.408;2023-08-30T02:48:29;96365.25;;;19.25;75.24
1694;BME280;71975;47.068;15.408;2023-08-30T02:53:32;96364.94;;;19.49;74.29
1694;BME280;71975;47.068;15.408;2023-08-30T02:58:36;96364.69;;;19.47;73.68
1694;BME280;71975;47.068;15.408;2023-08-30T03:03:39;96361.13;;;19.41;71.84
1694;BME280;71975;47.068;15.408;2023-08-30T03:08:42;96361.25;;;19.57;70.24
1694;BME280;71975;47.068;15.408;2023-08-30T03:13:46;96361.25;;;19.57;70.25
1694;BME280;71975;47.068;15.408;2023-08-30T03:18:49;96370.56;;;19.34;71.68
1694;BME280;71975;47.068;15.408;2023-08-30T03:23:52;96365.00;;;19.60;70.76
1694;BME280;71975;47.068;15.408;2023-08-30T03:28:56;96363.81;;;19.72;68.16
1694;BME280;71975;47.068;15.408;2023-08-30T03:33:59;96363.81;;;19.66;68.14
1694;BME280;71975;47.068;15.408;2023-08-30T03:39:02;96351.06;;;19.63;68.34
1694;BME280;71975;47.068;15.408;2023-08-30T03:44:06;96355.03;;;19.62;66.95
1694;BME280;71975;47.068;15.408;2023-08-30T03:49:09;96351.97;;;19.49;65.83
1694;BME280;71975;47.068;15.408;2023-08-30T03:54:12;96351.34;;;19.34;65.63
1694;BME280;71975;47.068;15.408;2023-08-30T03:59:19;96343.22;;;19.14;66.39
1694;BME280;71975;47.068;15.408;2023-08-30T04:04:26;96347.53;;;19.26;65.96
1694;BME280;71975;47.068;15.408;2023-08-30T04:09:29;96352.97;;;19.15;67.29
1694;BME280;71975;47.068;15.408;2023-08-30T04:14:33;96363.28;;;19.31;66.50
1694;BME280;71975;47.068;15.408;2023-08-30T04:19:36;96352.31;;;19.31;66.33
1694;BME280;71975;47.068;15.408;2023-08-30T04:24:38;96344.63;;;19.35;65.14
1694;BME280;71975;47.068;15.408;2023-08-30T04:29:43;96341.16;;;19.40;65.76
1694;BME280;71975;47.068;15.408;2023-08-30T04:34:46;96342.00;;;19.52;65.84
1694;BME280;71975;47.068;15.408;2023-08-30T04:39:49;96334.72;;;19.12;67.01
1694;BME280;71975;47.068;15.408;2023-08-30T04:44:54;96329.75;;;19.16;67.18
1694;BME280;71975;47.068;15.408;2023-08-30T04:49:57;96359.22;;;19.21;66.91
1694;BME280;71975;47.068;15.408;2023-08-30T04:55:01;96347.66;;;19.37;66.18
1694;BME280;71975;47.068;15.408;2023-08-30T05:00:07;96345.44;;;19.41;64.03
1694;BME280;71975;47.068;15.408;2023-08-30T05:05:10;96353.16;;;19.37;64.33
1694;BME280;71975;47.068;15.408;2023-08-30T05:10:13;96349.53;;;19.62;63.87
1694;BME280;71975;47.068;15.408;2023-08-30T05:15:19;96352.53;;;19.64;63.84
1694;BME280;71975;47.068;15.408;2023-08-30T05:20:22;96354.41;;;19.78;63.78
1694;BME280;71975;47.068;15.408;2023-08-30T05:25:25;96351.56;;;19.67;64.85
1694;BME280;71975;47.068;15.408;2023-08-30T05:30:30;96357.44;;;19.86;65.01
1694;BME280;71975;47.068;15.408;2023-08-30T05:35:33;96369.69;;;19.91;62.20
1694;BME280;71975;47.068;15.408;2023-08-30T05:40:35;96376.66;;;19.92;61.35
1694;BME280;71975;47.068;15.408;2023-08-30T05:45:45;96384.44;;;19.93;60.88
1694;BME280;71975;47.068;15.408;2023-08-30T05:50:48;96377.75;;;20.11;59.84
1694;BME280;71975;47.068;15.408;2023-08-30T05:55:51;96385.16;;;19.94;61.01
1694;BME280;71975;47.068;15.408;2023-08-30T06:00:56;96382.78;;;20.18;61.20
1694;BME280;71975;47.068;15.408;2023-08-30T06:06:03;96384.63;;;20.32;62.21
1694;BME280;71975;47.068;15.408;2023-08-30T06:11:06;96393.34;;;20.30;62.95
1694;BME280;71975;47.068;15.408;2023-08-30T06:16:10;96396.38;;;20.38;62.96
1694;BME280;71975;47.068;15.408;2023-08-30T06:21:13;96401.41;;;20.45;63.55
1694;BME280;71975;47.068;15.408;2023-08-30T06:26:16;96406.94;;;20.50;63.78
1694;BME280;71975;47.068;15.408;2023-08-30T06:31:21;96414.13;;;20.42;64.01
1694;BME280;71975;47.068;15.408;2023-08-30T06:36:24;96425.47;;;20.61;62.56
1694;BME280;71975;47.068;15.408;2023-08-30T06:41:26;96428.78;;;20.93;61.83
1694;BME280;71975;47.068;15.408;2023-08-30T06:46:31;96431.09;;;21.11;60.92
1694;BME280;71975;47.068;15.408;2023-08-30T06:51:34;96434.09;;;21.30;60.39
1694;BME280;71975;47.068;15.408;2023-08-30T06:56:37;96431.63;;;21.26;60.81
1694;BME280;71975;47.068;15.408;2023-08-30T07:01:41;96431.09;;;21.50;60.14
1694;BME280;71975;47.068;15.408;2023-08-30T07:06:44;96440.34;;;21.63;60.42
1694;BME280;71975;47.068;15.408;2023-08-30T07:11:47;96439.34;;;21.72;60.75
1694;BME280;71975;47.068;15.408;2023-08-30T07:16:51;96442.09;;;21.77;59.70
1694;BME280;71975;47.068;15.408;2023-08-30T07:21:54;96449.09;;;21.73;59.25
1694;BME280;71975;47.068;15.408;2023-08-30T07:26:57;96452.66;;;21.46;58.66
1694;BME280;71975;47.068;15.408;2023-08-30T07:32:01;96461.63;;;21.30;59.74
1694;BME280;71975;47.068;15.408;2023-08-30T07:37:04;96467.66;;;21.45;59.99
1694;BME280;71975;47.068;15.408;2023-08-30T07:42:07;96484.91;;;21.34;61.94
1694;BME280;71975;47.068;15.408;2023-08-30T07:47:11;96481.16;;;21.21;62.52
1694;BME280;71975;47.068;15.408;2023-08-30T07:52:14;96491.50;;;20.72;65.52
1694;BME280;71975;47.068;15.408;2023-08-30T07:57:21;96489.06;;;20.96;63.54
1694;BME280;71975;47.068;15.408;2023-08-30T08:02:26;96495.66;;;21.27;62.56
1694;BME280;71975;47.068;15.408;2023-08-30T08:07:28;96491.69;;;21.50;60.20
1694;BME280;71975;47.068;15.408;2023-08-30T08:12:32;96502.47;;;22.03;56.67
1694;BME280;71975;47.068;15.408;2023-08-30T08:17:37;96504.19;;;21.73;57.29
1694;BME280;71975;47.068;15.408;2023-08-30T08:22:40;96512.72;;;21.80;57.86
1694;BME280;71975;47.068;15.408;2023-08-30T08:27:43;96510.72;;;21.48;58.35
1694;BME280;71975;47.068;15.408;2023-08-30T08:32:47;96506.22;;;22.00;60.18
1694;BME280;71975;47.068;15.408;2023-08-30T08:37:50;96516.44;;;23.07;54.45
1694;BME280;71975;47.068;15.408;2023-08-30T08:42:54;96508.69;;;22.31;57.80
1694;BME280;71975;47.068;15.408;2023-08-30T08:47:59;96504.66;;;23.47;51.93
1694;BME280;71975;47.068;15.408;2023-08-30T08:53:03;96504.50;;;24.53;49.41
1694;BME280;71975;47.068;15.408;2023-08-30T08:58:06;96506.88;;;23.90;47.07
1694;BME280;71975;47.068;15.408;2023-08-30T09:03:10;96501.03;;;24.47;46.86
1694;BME280;71975;47.068;15.408;2023-08-30T09:08:16;96501.06;;;24.90;46.03
1694;BME280;71975;47.068;15.408;2023-08-30T09:13:19;96499.88;;;25.23;44.42
1694;BME280;71975;47.068;15.408;2023-08-30T09:18:25;96502.50;;;24.96;46.87
1694;BME280;71975;47.068;15.408;2023-08-30T09:23:29;96493.44;;;25.52;45.38
1694;BME280;71975;47.068;15.408;2023-08-30T09:28:42;96500.59;;;25.04;46.89
1694;BME280;71975;47.068;15.408;2023-08-30T09:33:46;96497.38;;;25.56;45.88
1694;BME280;71975;47.068;15.408;2023-08-30T09:38:50;96496.97;;;24.54;49.21
1694;BME280;71975;47.068;15.408;2023-08-30T09:43:54;96494.94;;;24.97;48.15
1694;BME280;71975;47.068;15.408;2023-08-30T09:49:19;96494.00;;;24.70;48.18
1694;BME280;71975;47.068;15.408;2023-08-30T09:54:23;96485.19;;;25.28;46.87
1694;BME280;71975;47.068;15.408;2023-08-30T09:59:29;96485.59;;;24.09;50.20
1694;BME280;71975;47.068;15.408;2023-08-30T10:04:35;96483.75;;;24.41;48.67
1694;BME280;71975;47.068;15.408;2023-08-30T10:09:41;96469.19;;;24.59;48.33
1694;BME280;71975;47.068;15.408;2023-08-30T10:15:05;96475.59;;;23.76;49.50
1694;BME280;71975;47.068;15.408;2023-08-30T10:20:10;96477.41;;;23.98;49.83
1694;BME280;71975;47.068;15.408;2023-08-30T10:25:18;96478.38;;;23.70;51.60
1694;BME280;71975;47.068;15.408;2023-08-30T10:30:22;96472.44;;;23.91;51.87
1694;BME280;71975;47.068;15.408;2023-08-30T10:35:27;96477.25;;;23.85;51.07
1694;BME280;71975;47.068;15.408;2023-08-30T10:40:30;96468.13;;;24.44;50.02
1694;BME280;71975;47.068;15.408;2023-08-30T10:45:33;96465.78;;;24.72;49.59
1694;BME280;71975;47.068;15.408;2023-08-30T10:50:38;96470.81;;;24.49;49.87
1694;BME280;71975;47.068;15.408;2023-08-30T10:55:40;96471.41;;;24.18;49.32
1694;BME280;71975;47.068;15.408;2023-08-30T11:00:43;96474.75;;;24.11;50.02
1694;BME280;71975;47.068;15.408;2023-08-30T11:05:48;96481.16;;;24.49;49.16
1694;BME280;71975;47.068;15.408;2023-08-30T11:11:00;96474.50;;;26.14;44.60
1694;BME280;71975;47.068;15.408;2023-08-30T11:16:04;96475.16;;;26.46;42.83
1694;BME280;71975;47.068;15.408;2023-08-30T11:21:08;96478.47;;;26.84;42.06
1694;BME280;71975;47.068;15.408;2023-08-30T11:26:13;96467.13;;;27.29;41.14
1694;BME280;71975;47.068;15.408;2023-08-30T11:31:19;96463.75;;;26.37;42.56
1694;BME280;71975;47.068;15.408;2023-08-30T11:36:27;96471.03;;;25.50;43.96
1694;BME280;71975;47.068;15.408;2023-08-30T11:41:31;96467.81;;;26.62;41.21
1694;BME280;71975;47.068;15.408;2023-08-30T11:46:34;96467.53;;;26.99;40.13
1694;BME280;71975;47.068;15.408;2023-08-30T11:51:38;96459.47;;;27.22;39.31
1694;BME280;71975;47.068;15.408;2023-08-30T11:56:41;96467.19;;;27.70;39.13
1694;BME280;71975;47.068;15.408;2023-08-30T12:01:44;96459.19;;;27.33;39.11
1694;BME280;71975;47.068;15.408;2023-08-30T12:06:52;96453.06;;;26.41;41.04
1694;BME280;71975;47.068;15.408;2023-08-30T12:12:04;96443.13;;;27.73;38.29
1694;BME280;71975;47.068;15.408;2023-08-30T12:17:08;96445.75;;;27.57;39.45
1694;BME280;71975;47.068;15.408;2023-08-30T12:22:15;96441.56;;;28.69;36.85
1694;BME280;71975;47.068;15.408;2023-08-30T12:27:18;96436.53;;;27.08;39.51
1694;BME280;71975;47.068;15.408;2023-08-30T12:32:21;96433.38;;;27.58;39.38
1694;BME280;71975;47.068;15.408;2023-08-30T12:37:25;96434.56;;;26.82;39.85
1694;BME280;71975;47.068;15.408;2023-08-30T12:42:28;96437.56;;;26.06;41.09
1694;BME280;71975;47.068;15.408;2023-08-30T12:47:31;96427.97;;;26.46;41.12
1694;BME280;71975;47.068;15.408;2023-08-30T12:52:35;96431.63;;;26.41;43.42
1694;BME280;71975;47.068;15.408;2023-08-30T12:57:38;96426.91;;;26.10;42.68
1694;BME280;71975;47.068;15.408;2023-08-30T13:02:41;96443.56;;;25.15;47.02
1694;BME280;71975;47.068;15.408;2023-08-30T13:07:46;96449.56;;;25.19;48.84
1694;BME280;71975;47.068;15.408;2023-08-30T13:12:49;96441.88;;;25.12;50.56
1694;BME280;71975;47.068;15.408;2023-08-30T13:17:52;96450.81;;;24.62;50.12
1694;BME280;71975;47.068;15.408;2023-08-30T13:22:57;96444.88;;;24.52;51.95
1694;BME280;71975;47.068;15.408;2023-08-30T13:28:00;96458.06;;;24.22;52.70
1694;BME280;71975;47.068;15.408;2023-08-30T13:33:04;96467.38;;;24.43;52.53
1694;BME280;71975;47.068;15.408;2023-08-30T13:38:10;96473.41;;;23.63;57.04
1694;BME280;71975;47.068;15.408;2023-08-30T13:43:13;96488.81;;;23.13;58.51
1694;BME280;71975;47.068;15.408;2023-08-30T13:48:17;96498.88;;;23.10;60.25
1694;BME280;71975;47.068;15.408;2023-08-30T13:53:24;96497.47;;;22.87;61.27
1694;BME280;71975;47.068;15.408;2023-08-30T13:58:29;96500.59;;;22.67;61.27
1694;BME280;71975;47.068;15.408;2023-08-30T14:03:33;96514.59;;;22.58;62.07
1694;BME280;71975;47.068;15.408;2023-08-30T14:08:38;96511.47;;;22.20;61.32
1694;BME280;71975;47.068;15.408;2023-08-30T14:13:43;96517.25;;;22.11;61.63
1694;BME280;71975;47.068;15.408;2023-08-30T14:18:47;96518.00;;;21.90;64.72
1694;BME280;71975;47.068;15.408;2023-08-30T14:23:51;96519.00;;;21.70;64.05
1694;BME280;71975;47.068;15.408;2023-08-30T14:28:55;96526.25;;;21.78;64.60
1694;BME280;71975;47.068;15.408;2023-08-30T14:33:59;96532.06;;;21.92;64.82
1694;BME280;71975;47.068;15.408;2023-08-30T14:39:05;96537.00;;;21.65;66.36
1694;BME280;71975;47.068;15.408;2023-08-30T14:44:10;96542.03;;;21.50;66.43
1694;BME280;71975;47.068;15.408;2023-08-30T14:49:15;96539.53;;;21.69;66.47
1694;BME280;71975;47.068;15.408;2023-08-30T14:54:22;96541.25;;;21.61;66.33
1694;BME280;71975;47.068;15.408;2023-08-30T14:59:28;96548.53;;;21.69;66.86
1694;BME280;71975;47.068;15.408;2023-08-30T15:04:32;96551.03;;;21.45;69.29
1694;BME280;71975;47.068;15.408;2023-08-30T15:09:39;96550.03;;;21.76;68.19
1694;BME280;71975;47.068;15.408;2023-08-30T15:14:45;96542.28;;;21.58;69.26
1694;BME280;71975;47.068;15.408;2023-08-30T15:19:50;96547.25;;;21.54;69.83
1694;BME280;71975;47.068;15.408;2023-08-30T15:24:59;96547.78;;;21.58;70.41
1694;BME280;71975;47.068;15.408;2023-08-30T15:30:06;96561.28;;;21.56;71.82
1694;BME280;71975;47.068;15.408;2023-08-30T15:35:12;96560.81;;;21.57;72.37
1694;BME280;71975;47.068;15.408;2023-08-30T15:40:19;96573.06;;;21.73;71.69
1694;BME280;71975;47.068;15.408;2023-08-30T15:45:24;96575.28;;;21.47;72.15
1694;BME280;71975;47.068;15.408;2023-08-30T15:50:41;96579.34;;;21.62;69.61
1694;BME280;71975;47.068;15.408;2023-08-30T15:55:48;96572.81;;;21.60;69.43
1694;BME280;71975;47.068;15.408;2023-08-30T16:00:55;96583.31;;;21.45;69.17
1694;BME280;71975;47.068;15.408;2023-08-30T16:06:03;96576.56;;;21.46;66.61
1694;BME280;71975;47.068;15.408;2023-08-30T16:11:14;96574.03;;;21.42;68.06
1694;BME280;71975;47.068;15.408;2023-08-30T16:16:20;96584.28;;;21.42;68.00
1694;BME280;71975;47.068;15.408;2023-08-30T16:21:29;96588.31;;;21.52;68.03
1694;BME280;71975;47.068;15.408;2023-08-30T16:26:47;96594.09;;;21.59;66.66
1694;BME280;71975;47.068;15.408;2023-08-30T16:32:01;96599.59;;;21.48;67.86
1694;BME280;71975;47.068;15.408;2023-08-30T16:37:09;96604.06;;;21.40;68.53
1694;BME280;71975;47.068;15.408;2023-08-30T16:42:19;96603.31;;;21.40;69.79
1694;BME280;71975;47.068;15.408;2023-08-30T16:47:29;96614.38;;;21.51;69.93
1694;BME280;71975;47.068;15.408;2023-08-30T16:53:00;96619.63;;;21.54;69.45
1694;BME280;71975;47.068;15.408;2023-08-30T16:58:13;96611.34;;;21.49;70.18
1694;BME280;71975;47.068;15.408;2023-08-30T17:03:21;96620.53;;;21.18;71.37
1694;BME280;71975;47.068;15.408;2023-08-30T17:08:27;96622.66;;;21.03;73.91
1694;BME280;71975;47.068;15.408;2023-08-30T17:13:45;96635.28;;;20.36;75.87
1694;BME280;71975;47.068;15.408;2023-08-30T17:18:52;96642.81;;;20.78;72.75
1694;BME280;71975;47.068;15.408;2023-08-30T17:23:59;96636.00;;;20.31;76.25
1694;BME280;71975;47.068;15.408;2023-08-30T17:29:17;96638.31;;;20.12;78.13
1694;BME280;71975;47.068;15.408;2023-08-30T17:34:28;96643.81;;;19.86;79.50
1694;BME280;71975;47.068;15.408;2023-08-30T17:39:36;96640.81;;;19.84;78.66
1694;BME280;71975;47.068;15.408;2023-08-30T17:44:46;96641.41;;;19.68;78.74
1694;BME280;71975;47.068;15.408;2023-08-30T17:50:06;96644.41;;;19.96;78.25
1694;BME280;71975;47.068;15.408;2023-08-30T17:55:16;96649.78;;;20.11;79.95
1694;BME280;71975;47.068;15.408;2023-08-30T18:00:41;96644.69;;;19.98;81.33
1694;BME280;71975;47.068;15.408;2023-08-30T18:05:48;96657.97;;;19.79;82.26
1694;BME280;71975;47.068;15.408;2023-08-30T18:10:58;96669.09;;;19.91;80.67
1694;BME280;71975;47.068;15.408;2023-08-30T18:16:20;96685.34;;;19.68;80.74
1694;BME280;71975;47.068;15.408;2023-08-30T18:21:35;96693.66;;;19.54;83.70
1694;BME280;71975;47.068;15.408;2023-08-30T18:26:46;96694.13;;;19.52;82.90
1694;BME280;71975;47.068;15.408;2023-08-30T18:32:00;96701.63;;;19.52;84.88
1694;BME280;71975;47.068;15.408;2023-08-30T18:37:11;96716.34;;;19.74;82.26
1694;BME280;71975;47.068;15.408;2023-08-30T18:42:27;96716.00;;;19.67;81.88
1694;BME280;71975;47.068;15.408;2023-08-30T18:47:40;96722.25;;;19.88;82.17
1694;BME280;71975;47.068;15.408;2023-08-30T18:52:47;96728.06;;;19.49;84.35
1694;BME280;71975;47.068;15.408;2023-08-30T18:57:59;96729.78;;;19.47;84.95
1694;BME280;71975;47.068;15.408;2023-08-30T19:03:16;96735.47;;;19.63;84.00
1694;BME280;71975;47.068;15.408;2023-08-30T19:08:24;96738.75;;;19.67;84.24
1694;BME280;71975;47.068;15.408;2023-08-30T19:13:30;96739.84;;;19.75;82.23
1694;BME280;71975;47.068;15.408;2023-08-30T19:18:43;96740.13;;;19.77;82.51
1694;BME280;71975;47.068;15.408;2023-08-30T19:23:51;96728.69;;;19.59;83.83
1694;BME280;71975;47.068;15.408;2023-08-30T19:29:01;96735.50;;;19.89;81.90
1694;BME280;71975;47.068;15.408;2023-08-30T19:34:21;96735.50;;;19.89;81.53
1694;BME280;71975;47.068;15.408;2023-08-30T19:39:30;96747.38;;;20.01;80.60
1694;BME280;71975;47.068;15.408;2023-08-30T19:44:36;96742.28;;;19.94;81.21
1694;BME280;71975;47.068;15.408;2023-08-30T19:49:51;96746.88;;;20.22;80.75
1694;BME280;71975;47.068;15.408;2023-08-30T19:55:00;96741.69;;;20.30;80.11
1694;BME280;71975;47.068;15.408;2023-08-30T20:00:08;96744.78;;;20.17;80.83
1694;BME280;71975;47.068;15.408;2023-08-30T20:05:21;96754.50;;;20.13;78.01
1694;BME280;71975;47.068;15.408;2023-08-30T20:10:29;96753.94;;;20.09;80.89
1694;BME280;71975;47.068;15.408;2023-08-30T20:15:37;96759.75;;;19.91;83.00
1694;BME280;71975;47.068;15.408;2023-08-30T20:20:47;96760.97;;;20.10;81.80
1694;BME280;71975;47.068;15.408;2023-08-30T20:25:55;96763.81;;;19.75;84.08
1694;BME280;71975;47.068;15.408;2023-08-30T20:31:02;96757.28;;;19.72;83.47
1694;BME280;71975;47.068;15.408;2023-08-30T20:36:11;96759.25;;;19.72;82.83
1694;BME280;71975;47.068;15.408;2023-08-30T20:41:19;96759.22;;;19.66;83.69
1694;BME280;71975;47.068;15.408;2023-08-30T20:46:28;96761.31;;;19.77;82.93
1694;BME280;71975;47.068;15.408;2023-08-30T20:51:38;96769.34;;;20.01;81.29
1694;BME280;71975;47.068;15.408;2023-08-30T20:56:44;96760.44;;;19.65;82.60
1694;BME280;71975;47.068;15.408;2023-08-30T21:01:49;96761.34;;;19.37;84.06
1694;BME280;71975;47.068;15.408;2023-08-30T21:06:54;96763.75;;;19.49;83.70
1694;BME280;71975;47.068;15.408;2023-08-30T21:11:57;96758.25;;;19.69;82.85
1694;BME280;71975;47.068;15.408;2023-08-30T21:17:00;96768.13;;;19.81;81.82
1694;BME280;71975;47.068;15.408;2023-08-30T21:22:06;96767.84;;;19.79;81.97
1694;BME280;71975;47.068;15.408;2023-08-30T21:27:10;96771.84;;;19.78;82.07
1694;BME280;71975;47.068;15.408;2023-08-30T21:32:13;96767.03;;;19.73;82.65
1694;BME280;71975;47.068;15.408;2023-08-30T21:37:17;96768.00;;;19.70;83.00
1694;BME280;71975;47.068;15.408;2023-08-30T21:42:20;96775.91;;;19.83;82.46
1694;BME280;71975;47.068;15.408;2023-08-30T21:47:23;96770.75;;;19.91;82.09
1694;BME280;71975;47.068;15.408;2023-08-30T21:52:28;96765.25;;;19.91;81.05
1694;BME280;71975;47.068;15.408;2023-08-30T21:57:31;96777.59;;;19.80;81.77
1694;BME280;71975;47.068;15.408;2023-08-30T22:02:34;96780.91;;;19.84;81.32
1694;BME280;71975;47.068;15.408;2023-08-30T22:07:39;96778.81;;;20.00;80.13
1694;BME280;71975;47.068;15.408;2023-08-30T22:12:42;96777.59;;;20.01;78.13
1694;BME280;71975;47.068;15.408;2023-08-30T22:17:46;96781.91;;;19.87;78.58
1694;BME280;71975;47.068;15.408;2023-08-30T22:22:52;96788.44;;;19.90;78.45
1694;BME280;71975;47.068;15.408;2023-08-30T22:27:55;96792.72;;;19.91;79.16
1694;BME280;71975;47.068;15.408;2023-08-30T22:32:58;96786.25;;;19.94;79.33
1694;BME280;71975;47.068;15.408;2023-08-30T22:38:03;96795.03;;;19.98;79.57
1694;BME280;71975;47.068;15.408;2023-08-30T22:43:06;96805.41;;;19.88;79.68
1694;BME280;71975;47.068;15.408;2023-08-30T22:48:11;96797.72;;;19.92;77.84
1694;BME280;71975;47.068;15.408;2023-08-30T22:53:15;96794.34;;;20.03;77.48
1694;BME280;71975;47.068;15.408;2023-08-30T22:58:18;96795.84;;;20.04;77.23
1694;BME280;71975;47.068;15.408;2023-08-30T23:03:21;96800.59;;;20.03;75.72
1694;BME280;71975;47.068;15.408;2023-08-30T23:08:27;96801.75;;;19.97;75.47
1694;BME280;71975;47.068;15.408;2023-08-30T23:13:30;96795.88;;;19.63;77.06
1694;BME280;71975;47.068;15.408;2023-08-30T23:18:33;96804.50;;;19.76;76.03
1694;BME280;71975;47.068;15.408;2023-08-30T23:23:37;96802.34;;;19.80;74.83
1694;BME280;71975;47.068;15.408;2023-08-30T23:28:41;96798.53;;;19.38;77.96
1694;BME280;71975;47.068;15.408;2023-08-30T23:33:48;96799.91;;;19.33;79.38
1694;BME280;71975;47.068;15.408;2023-08-30T23:38:52;96807.22;;;19.36;78.77
1694;BME280;71975;47.068;15.408;2023-08-30T23:43:57;96812.03;;;19.41;79.39
1694;BME280;71975;47.068;15.408;2023-08-30T23:48:59;96808.44;;;19.35;79.56
1694;BME280;71975;47.068;15.408;2023-08-30T23:54:04;96802.19;;;19.49;79.50
1694;BME280;71975;47.068;15.408;2023-08-30T23:59:08;96798.75;;;19.54;78.29
